createdAt,value
2022-07-27T05:32:47.990Z,99.90
2022-07-27T06:02:24.157Z,99.90
2022-07-27T06:04:54.867Z,99.90
2022-07-27T06:10:17.480Z,99.90
2022-07-27T06:12:48.149Z,99.90
2022-07-27T06:15:19.896Z,99.90
2022-07-27T06:17:49.742Z,99.90
2022-07-27T06:22:51.115Z,99.90
2022-07-27T06:25:20.135Z,99.90
2022-07-27T06:27:49.233Z,99.90
2022-07-27T06:30:18.907Z,99.90
2022-07-27T06:42:48.661Z,99.90
2022-07-27T06:50:20.617Z,99.90
2022-07-27T06:52:48.810Z,99.90
2022-07-27T07:00:13.478Z,99.90
2022-07-27T07:03:01.662Z,99.90
2022-07-27T07:05:30.245Z,99.90
2022-07-27T07:07:58.698Z,99.90
2022-07-27T07:10:28.181Z,99.90
2022-07-27T07:13:16.547Z,99.90
2022-07-27T07:15:49.409Z,99.90
2022-07-27T07:18:22.470Z,99.90
2022-07-27T07:28:22.307Z,99.90
2022-07-27T07:41:07.581Z,99.90
2022-07-27T07:48:39.841Z,99.30
2022-07-27T08:01:13.365Z,99.50
2022-07-27T08:03:40.619Z,99.90
2022-07-27T08:06:08.366Z,99.90
2022-07-27T08:36:56.832Z,83.10
2022-07-27T08:42:12.244Z,82.10
2022-07-27T08:44:41.413Z,71.20
2022-07-27T08:47:10.525Z,69.90
2022-07-27T08:49:43.441Z,71.10
2022-07-27T08:52:12.437Z,68.50
2022-07-27T08:54:41.965Z,68.90
2022-07-27T08:57:10.113Z,69.40
2022-07-27T08:59:37.505Z,79.80
2022-07-27T09:02:10.665Z,81.70
2022-07-27T09:04:41.016Z,85.00
2022-07-27T09:07:08.866Z,78.30
2022-07-27T09:09:46.254Z,83.30
2022-07-27T09:12:13.644Z,77.70
2022-07-27T09:14:42.111Z,85.80
2022-07-27T09:20:18.440Z,89.00
2022-07-27T09:22:52.690Z,90.50
2022-07-27T09:25:44.912Z,90.90
2022-07-27T09:28:10.465Z,90.90
2022-07-27T09:30:44.905Z,83.90
2022-07-27T09:33:15.535Z,90.10
2022-07-27T09:35:44.333Z,89.90
2022-07-27T09:38:27.012Z,80.90
2022-07-27T09:41:09.282Z,81.50
2022-07-27T09:46:41.003Z,82.30
2022-07-27T09:49:27.644Z,81.10
2022-07-27T09:52:00.021Z,80.50
2022-07-27T09:54:43.128Z,80.00
2022-07-27T09:57:10.996Z,79.70
2022-07-27T09:59:38.324Z,78.30
2022-07-27T10:02:06.620Z,75.30
2022-07-27T10:04:34.230Z,72.30
2022-07-27T10:07:04.616Z,69.30
2022-07-27T10:09:35.050Z,70.00
2022-07-27T10:12:04.762Z,69.40
2022-07-27T10:14:33.361Z,65.70
2022-07-27T10:17:01.350Z,65.10
2022-07-27T10:19:36.357Z,64.00
2022-07-27T10:22:03.679Z,64.10
2022-07-27T10:24:36.361Z,65.60
2022-07-27T10:27:22.436Z,72.40
2022-07-27T10:29:51.438Z,67.40
2022-07-27T10:32:31.266Z,70.20
2022-07-27T10:35:00.082Z,71.90
2022-07-27T10:37:30.670Z,76.40
2022-07-27T10:40:20.916Z,68.40
2022-07-27T10:42:54.486Z,68.90
2022-07-27T10:45:22.532Z,70.40
2022-07-27T10:47:52.437Z,67.50
2022-07-27T10:50:24.869Z,64.50
2022-07-27T10:52:57.407Z,64.70
2022-07-27T10:55:45.188Z,65.60
2022-07-27T10:58:18.906Z,67.60
2022-07-27T11:03:33.667Z,69.50
2022-07-27T11:06:31.869Z,81.30
2022-07-27T11:09:53.378Z,72.20
2022-07-27T11:11:49.572Z,85.40
2022-07-27T11:21:53.819Z,84.50
2022-07-27T11:24:23.432Z,72.40
2022-07-27T11:26:52.764Z,81.40
2022-07-27T11:29:22.632Z,68.20
2022-07-27T11:31:57.780Z,81.70
2022-07-27T11:34:27.736Z,79.60
2022-07-27T11:36:55.320Z,67.00
2022-07-27T11:42:17.685Z,81.60
2022-07-27T11:44:49.289Z,70.10
2022-07-27T11:47:19.966Z,70.60
2022-07-27T11:52:18.067Z,85.10
2022-07-27T11:54:52.673Z,86.80
2022-07-27T11:59:48.676Z,85.50
2022-07-27T12:02:19.813Z,71.30
2022-07-27T12:04:49.763Z,85.20
2022-07-27T12:07:28.222Z,72.20
2022-07-27T12:09:58.109Z,85.70
2022-07-27T12:12:27.565Z,85.00
2022-07-27T12:14:58.492Z,84.40
2022-07-27T12:17:31.999Z,70.90
2022-07-27T12:20:23.592Z,81.30
2022-07-27T12:22:53.952Z,79.80
2022-07-27T12:25:29.488Z,81.00
2022-07-27T12:28:02.392Z,69.40
2022-07-27T12:30:36.858Z,69.70
2022-07-27T12:33:07.119Z,70.00
2022-07-27T12:35:46.789Z,81.60
2022-07-27T12:40:46.684Z,82.30
2022-07-27T12:43:20.371Z,67.90
2022-07-27T12:45:49.669Z,68.50
2022-07-27T12:48:20.771Z,82.00
2022-07-27T12:51:05.843Z,68.20
2022-07-27T12:53:35.096Z,73.20
2022-07-27T12:56:06.448Z,82.60
2022-07-27T12:58:34.172Z,82.90
2022-07-27T13:01:01.819Z,83.60
2022-07-27T13:03:29.146Z,84.30
2022-07-27T13:10:52.834Z,85.50
2022-07-27T13:13:24.702Z,84.60
2022-07-27T13:15:52.294Z,86.20
2022-07-27T13:18:23.574Z,84.00
2022-07-27T13:23:19.170Z,85.30
2022-07-27T13:25:46.371Z,84.10
2022-07-27T13:28:13.578Z,84.50
2022-07-27T13:30:40.972Z,85.00
2022-07-27T13:33:08.734Z,85.00
2022-07-27T13:35:36.248Z,85.00
2022-07-27T13:38:03.765Z,85.10
2022-07-27T13:40:30.904Z,85.40
2022-07-27T13:42:58.111Z,85.00
2022-07-27T13:45:25.365Z,84.30
2022-07-27T13:47:54.717Z,68.20
2022-07-27T13:50:22.285Z,84.30
2022-07-27T13:52:49.621Z,85.70
2022-07-27T13:55:17.795Z,86.10
2022-07-27T13:57:46.771Z,87.00
2022-07-27T14:00:15.398Z,86.30
2022-07-27T14:02:43.415Z,85.30
2022-07-27T14:05:12.892Z,86.00
2022-07-27T14:07:42.585Z,69.60
2022-07-27T14:10:31.144Z,87.30
2022-07-27T14:13:07.787Z,86.60
2022-07-27T14:15:53.633Z,87.00
2022-07-27T14:18:27.491Z,68.90
2022-07-27T14:20:56.641Z,86.50
2022-07-27T14:23:25.191Z,70.20
2022-07-27T14:25:53.749Z,83.60
2022-07-27T14:28:22.416Z,68.20
2022-07-27T14:33:18.464Z,85.40
2022-07-27T14:35:46.396Z,67.80
2022-07-27T14:38:14.347Z,69.10
2022-07-27T14:40:53.718Z,70.40
2022-07-27T14:43:22.580Z,87.20
2022-07-27T14:45:49.860Z,70.00
2022-07-27T14:48:25.455Z,70.50
2022-07-27T14:51:00.887Z,70.50
2022-07-27T14:53:28.198Z,71.20
2022-07-27T14:55:55.629Z,71.00
2022-07-27T14:58:22.986Z,71.60
2022-07-27T15:00:50.240Z,71.60
2022-07-27T15:03:19.652Z,69.90
2022-07-27T15:05:49.781Z,69.70
2022-07-27T15:08:20.012Z,70.00
2022-07-27T15:10:48.711Z,69.70
2022-07-27T15:13:17.137Z,69.50
2022-07-27T15:15:48.364Z,69.00
2022-07-27T15:18:18.852Z,69.20
2022-07-27T15:20:47.152Z,68.50
2022-07-27T15:23:15.611Z,68.60
2022-07-27T15:25:43.004Z,68.00
2022-07-27T15:28:10.784Z,67.80
2022-07-27T15:30:38.744Z,67.90
2022-07-27T15:33:07.122Z,67.40
2022-07-27T15:35:34.539Z,67.90
2022-07-27T15:38:02.009Z,68.00
2022-07-27T15:40:44.457Z,68.70
2022-07-27T15:43:14.820Z,68.20
2022-07-27T15:45:45.462Z,69.00
2022-07-27T15:48:13.646Z,69.30
2022-07-27T15:50:42.964Z,69.00
2022-07-27T15:53:11.211Z,69.70
2022-07-27T15:55:38.588Z,69.50
2022-07-27T15:58:06.977Z,69.50
